Elgin, Pennsylvania
Current Conditions -  °F | °C
As of 3:51 AM on Friday 31 Oct 2014 (Local Time) from KERI Reporting Station
Overcast Overcast  
Wind Chill:   Ceiling: 12000
Heat Index:   Visibility: 10mi
Dew Point:   Wind: 9mph
Humidity: 79%   Direction: 170°S
Pressure: 29.97"   Gusts: NA
Location:  41.9°N, 79.74°W
Report Text: KERI 310751Z AUTO 17008KT 10SM OVC120 06/02 A2997 RMK AO2 SLP153 T00560022
Loading
Personal Weather Stations






























Interactive Weather Map
Tropical Storm Tracking
New forecast layout! Learn more

10-Day Weather Forecast

Advertisements
Track Severe Weather on mobile